sensor_id;sensor_type;location;lat;lon;timestamp;temperature;humidity
9219;DHT22;4644;48.858;9.184;2023-05-24T00:01:54;12.90;99.90
9219;DHT22;4644;48.858;9.184;2023-05-24T00:04:21;12.90;99.90
9219;DHT22;4644;48.858;9.184;2023-05-24T00:06:49;12.90;99.90
9219;DHT22;4644;48.858;9.184;2023-05-24T00:09:19;12.90;99.90
9219;DHT22;4644;48.858;9.184;2023-05-24T00:11:46;12.90;99.90
9219;DHT22;4644;48.858;9.184;2023-05-24T00:14:14;12.90;99.90
9219;DHT22;4644;48.858;9.184;2023-05-24T00:16:43;12.90;99.90
9219;DHT22;4644;48.858;9.184;2023-05-24T00:19:12;12.90;99.90
9219;DHT22;4644;48.858;9.184;2023-05-24T00:21:43;13.00;99.90
9219;DHT22;4644;48.858;9.184;2023-05-24T00:24:10;12.90;99.90
9219;DHT22;4644;48.858;9.184;2023-05-24T00:26:37;12.90;99.90
9219;DHT22;4644;48.858;9.184;2023-05-24T00:29:04;12.90;99.90
9219;DHT22;4644;48.858;9.184;2023-05-24T00:31:31;12.90;99.90
9219;DHT22;4644;48.858;9.184;2023-05-24T00:34:00;12.90;99.90
9219;DHT22;4644;48.858;9.184;2023-05-24T00:36:27;12.90;99.90
9219;DHT22;4644;48.858;9.184;2023-05-24T00:38:54;12.90;99.90
9219;DHT22;4644;48.858;9.184;2023-05-24T00:41:21;12.90;99.90
9219;DHT22;4644;48.858;9.184;2023-05-24T00:43:48;12.90;99.90
9219;DHT22;4644;48.858;9.184;2023-05-24T00:46:17;12.80;99.90
9219;DHT22;4644;48.858;9.184;2023-05-24T00:48:47;12.80;99.90
9219;DHT22;4644;48.858;9.184;2023-05-24T00:51:16;12.80;99.90
9219;DHT22;4644;48.858;9.184;2023-05-24T00:53:45;12.80;99.90
9219;DHT22;4644;48.858;9.184;2023-05-24T00:56:13;12.80;99.90
9219;DHT22;4644;48.858;9.184;2023-05-24T00:58:41;12.70;99.90
9219;DHT22;4644;48.858;9.184;2023-05-24T01:01:09;12.80;99.90
9219;DHT22;4644;48.858;9.184;2023-05-24T01:03:36;12.80;99.90
9219;DHT22;4644;48.858;9.184;2023-05-24T01:06:05;12.80;99.90
9219;DHT22;4644;48.858;9.184;2023-05-24T01:08:56;12.70;99.90
9219;DHT22;4644;48.858;9.184;2023-05-24T01:11:37;12.70;99.90
9219;DHT22;4644;48.858;9.184;2023-05-24T01:14:24;12.70;99.90
9219;DHT22;4644;48.858;9.184;2023-05-24T01:16:55;12.70;99.90
9219;DHT22;4644;48.858;9.184;2023-05-24T01:19:51;12.70;99.90
9219;DHT22;4644;48.858;9.184;2023-05-24T01:22:39;12.70;99.90
9219;DHT22;4644;48.858;9.184;2023-05-24T01:25:15;12.60;99.90
9219;DHT22;4644;48.858;9.184;2023-05-24T01:27:46;12.60;99.90
9219;DHT22;4644;48.858;9.184;2023-05-24T01:30:14;12.50;99.90
9219;DHT22;4644;48.858;9.184;2023-05-24T01:32:41;12.50;99.90
9219;DHT22;4644;48.858;9.184;2023-05-24T01:35:08;12.50;99.90
9219;DHT22;4644;48.858;9.184;2023-05-24T01:37:35;12.50;99.90
9219;DHT22;4644;48.858;9.184;2023-05-24T01:40:03;12.50;99.90
9219;DHT22;4644;48.858;9.184;2023-05-24T01:42:38;12.50;99.90
9219;DHT22;4644;48.858;9.184;2023-05-24T01:45:16;12.50;99.90
9219;DHT22;4644;48.858;9.184;2023-05-24T01:47:54;12.40;99.90
9219;DHT22;4644;48.858;9.184;2023-05-24T01:50:27;12.30;99.90
9219;DHT22;4644;48.858;9.184;2023-05-24T01:52:58;12.30;99.90
9219;DHT22;4644;48.858;9.184;2023-05-24T01:55:28;12.30;99.90
9219;DHT22;4644;48.858;9.184;2023-05-24T01:57:59;12.20;99.90
9219;DHT22;4644;48.858;9.184;2023-05-24T02:00:30;12.20;99.90
9219;DHT22;4644;48.858;9.184;2023-05-24T02:02:58;12.20;99.90
9219;DHT22;4644;48.858;9.184;2023-05-24T02:05:27;12.20;99.90
9219;DHT22;4644;48.858;9.184;2023-05-24T02:07:54;12.10;99.90
9219;DHT22;4644;48.858;9.184;2023-05-24T02:10:21;12.10;99.90
9219;DHT22;4644;48.858;9.184;2023-05-24T02:12:48;12.10;99.90
9219;DHT22;4644;48.858;9.184;2023-05-24T02:15:16;12.10;99.90
9219;DHT22;4644;48.858;9.184;2023-05-24T02:17:44;12.10;99.90
9219;DHT22;4644;48.858;9.184;2023-05-24T02:20:12;12.00;99.90
9219;DHT22;4644;48.858;9.184;2023-05-24T02:22:41;12.00;99.90
9219;DHT22;4644;48.858;9.184;2023-05-24T02:25:09;11.90;99.90
9219;DHT22;4644;48.858;9.184;2023-05-24T02:27:36;12.00;99.90
9219;DHT22;4644;48.858;9.184;2023-05-24T02:30:06;12.00;99.90
9219;DHT22;4644;48.858;9.184;2023-05-24T02:32:33;12.00;99.90
9219;DHT22;4644;48.858;9.184;2023-05-24T02:35:02;12.00;99.90
9219;DHT22;4644;48.858;9.184;2023-05-24T02:37:29;12.00;99.90
9219;DHT22;4644;48.858;9.184;2023-05-24T02:39:56;11.90;99.90
9219;DHT22;4644;48.858;9.184;2023-05-24T02:42:23;12.00;99.90
9219;DHT22;4644;48.858;9.184;2023-05-24T02:44:50;12.00;99.90
9219;DHT22;4644;48.858;9.184;2023-05-24T02:47:18;12.00;99.90
9219;DHT22;4644;48.858;9.184;2023-05-24T02:49:45;12.00;99.90
9219;DHT22;4644;48.858;9.184;2023-05-24T02:52:13;12.00;99.90
9219;DHT22;4644;48.858;9.184;2023-05-24T02:54:46;12.10;99.90
9219;DHT22;4644;48.858;9.184;2023-05-24T02:57:13;12.00;99.90
9219;DHT22;4644;48.858;9.184;2023-05-24T02:59:40;12.00;99.90
9219;DHT22;4644;48.858;9.184;2023-05-24T03:02:07;11.90;99.90
9219;DHT22;4644;48.858;9.184;2023-05-24T03:04:34;11.90;99.90
9219;DHT22;4644;48.858;9.184;2023-05-24T03:07:01;11.90;99.90
9219;DHT22;4644;48.858;9.184;2023-05-24T03:09:31;11.90;99.90
9219;DHT22;4644;48.858;9.184;2023-05-24T03:11:58;11.90;99.90
9219;DHT22;4644;48.858;9.184;2023-05-24T03:14:25;11.80;99.90
9219;DHT22;4644;48.858;9.184;2023-05-24T03:16:52;11.80;99.90
9219;DHT22;4644;48.858;9.184;2023-05-24T03:19:20;11.80;99.90
9219;DHT22;4644;48.858;9.184;2023-05-24T03:21:47;11.80;99.90
9219;DHT22;4644;48.858;9.184;2023-05-24T03:24:15;11.70;99.90
9219;DHT22;4644;48.858;9.184;2023-05-24T03:26:43;11.70;99.90
9219;DHT22;4644;48.858;9.184;2023-05-24T03:29:11;11.60;99.90
9219;DHT22;4644;48.858;9.184;2023-05-24T03:31:38;11.50;99.90
9219;DHT22;4644;48.858;9.184;2023-05-24T03:34:05;11.50;99.90
9219;DHT22;4644;48.858;9.184;2023-05-24T03:36:32;11.50;99.90
9219;DHT22;4644;48.858;9.184;2023-05-24T03:39:01;11.50;99.90
9219;DHT22;4644;48.858;9.184;2023-05-24T03:41:29;11.50;99.90
9219;DHT22;4644;48.858;9.184;2023-05-24T03:43:58;11.40;99.90
9219;DHT22;4644;48.858;9.184;2023-05-24T03:46:25;11.40;99.90
9219;DHT22;4644;48.858;9.184;2023-05-24T03:48:52;11.40;99.90
9219;DHT22;4644;48.858;9.184;2023-05-24T03:51:19;11.40;99.90
9219;DHT22;4644;48.858;9.184;2023-05-24T03:53:48;11.40;99.90
9219;DHT22;4644;48.858;9.184;2023-05-24T03:56:15;11.30;99.90
9219;DHT22;4644;48.858;9.184;2023-05-24T03:58:42;11.30;99.90
9219;DHT22;4644;48.858;9.184;2023-05-24T04:01:10;11.40;99.90
9219;DHT22;4644;48.858;9.184;2023-05-24T04:03:38;11.30;99.90
9219;DHT22;4644;48.858;9.184;2023-05-24T04:06:06;11.30;99.90
9219;DHT22;4644;48.858;9.184;2023-05-24T04:08:33;11.30;99.90
9219;DHT22;4644;48.858;9.184;2023-05-24T04:11:00;11.30;99.90
9219;DHT22;4644;48.858;9.184;2023-05-24T04:13:27;11.40;99.90
9219;DHT22;4644;48.858;9.184;2023-05-24T04:15:54;11.40;99.90
9219;DHT22;4644;48.858;9.184;2023-05-24T04:18:22;11.40;99.90
9219;DHT22;4644;48.858;9.184;2023-05-24T04:20:50;11.30;99.90
9219;DHT22;4644;48.858;9.184;2023-05-24T04:23:20;11.30;99.90
9219;DHT22;4644;48.858;9.184;2023-05-24T04:25:48;11.30;99.90
9219;DHT22;4644;48.858;9.184;2023-05-24T04:28:15;11.30;99.90
9219;DHT22;4644;48.858;9.184;2023-05-24T04:30:42;11.30;99.90
9219;DHT22;4644;48.858;9.184;2023-05-24T04:33:10;11.30;99.90
9219;DHT22;4644;48.858;9.184;2023-05-24T04:35:39;11.40;99.90
9219;DHT22;4644;48.858;9.184;2023-05-24T04:38:06;11.40;99.90
9219;DHT22;4644;48.858;9.184;2023-05-24T04:40:33;11.50;99.90
9219;DHT22;4644;48.858;9.184;2023-05-24T04:43:00;11.40;99.90
9219;DHT22;4644;48.858;9.184;2023-05-24T04:45:28;11.40;99.90
9219;DHT22;4644;48.858;9.184;2023-05-24T04:47:57;11.40;99.90
9219;DHT22;4644;48.858;9.184;2023-05-24T04:50:24;11.40;99.90
9219;DHT22;4644;48.858;9.184;2023-05-24T04:52:53;11.40;99.90
9219;DHT22;4644;48.858;9.184;2023-05-24T04:55:20;11.40;99.90
9219;DHT22;4644;48.858;9.184;2023-05-24T04:57:47;11.50;99.90
9219;DHT22;4644;48.858;9.184;2023-05-24T05:00:15;11.40;99.90
9219;DHT22;4644;48.858;9.184;2023-05-24T05:02:43;11.40;99.90
9219;DHT22;4644;48.858;9.184;2023-05-24T05:05:10;11.50;99.90
9219;DHT22;4644;48.858;9.184;2023-05-24T05:07:37;11.50;99.90
9219;DHT22;4644;48.858;9.184;2023-05-24T05:10:10;11.50;99.90
9219;DHT22;4644;48.858;9.184;2023-05-24T05:12:37;11.50;99.90
9219;DHT22;4644;48.858;9.184;2023-05-24T05:15:05;11.50;99.90
9219;DHT22;4644;48.858;9.184;2023-05-24T05:17:33;11.50;99.90
9219;DHT22;4644;48.858;9.184;2023-05-24T05:20:00;11.60;99.90
9219;DHT22;4644;48.858;9.184;2023-05-24T05:22:28;11.50;99.90
9219;DHT22;4644;48.858;9.184;2023-05-24T05:24:55;11.60;99.90
9219;DHT22;4644;48.858;9.184;2023-05-24T05:27:24;11.50;99.90
9219;DHT22;4644;48.858;9.184;2023-05-24T05:29:51;11.60;99.90
9219;DHT22;4644;48.858;9.184;2023-05-24T05:32:18;11.60;99.90
9219;DHT22;4644;48.858;9.184;2023-05-24T05:34:46;11.70;99.90
9219;DHT22;4644;48.858;9.184;2023-05-24T05:37:13;11.70;99.90
9219;DHT22;4644;48.858;9.184;2023-05-24T05:39:41;11.70;99.90
9219;DHT22;4644;48.858;9.184;2023-05-24T05:42:08;11.70;99.90
9219;DHT22;4644;48.858;9.184;2023-05-24T05:44:36;11.80;99.90
9219;DHT22;4644;48.858;9.184;2023-05-24T05:47:04;11.80;99.90
9219;DHT22;4644;48.858;9.184;2023-05-24T05:49:33;11.80;99.90
9219;DHT22;4644;48.858;9.184;2023-05-24T05:52:01;11.70;99.90
9219;DHT22;4644;48.858;9.184;2023-05-24T05:54:28;11.80;99.90
9219;DHT22;4644;48.858;9.184;2023-05-24T05:56:55;11.80;99.90
9219;DHT22;4644;48.858;9.184;2023-05-24T05:59:23;11.90;99.90
9219;DHT22;4644;48.858;9.184;2023-05-24T06:01:52;11.90;99.90
9219;DHT22;4644;48.858;9.184;2023-05-24T06:04:19;12.00;99.90
9219;DHT22;4644;48.858;9.184;2023-05-24T06:06:48;12.00;99.90
9219;DHT22;4644;48.858;9.184;2023-05-24T06:09:15;12.00;99.90
9219;DHT22;4644;48.858;9.184;2023-05-24T06:11:42;12.30;99.90
9219;DHT22;4644;48.858;9.184;2023-05-24T06:14:09;12.20;99.90
9219;DHT22;4644;48.858;9.184;2023-05-24T06:16:37;12.30;99.90
9219;DHT22;4644;48.858;9.184;2023-05-24T06:19:09;12.20;99.90
9219;DHT22;4644;48.858;9.184;2023-05-24T06:21:36;12.20;99.90
9219;DHT22;4644;48.858;9.184;2023-05-24T06:24:06;12.00;99.90
9219;DHT22;4644;48.858;9.184;2023-05-24T06:26:35;12.00;99.90
9219;DHT22;4644;48.858;9.184;2023-05-24T06:29:03;12.10;99.90
9219;DHT22;4644;48.858;9.184;2023-05-24T06:31:30;12.20;99.90
9219;DHT22;4644;48.858;9.184;2023-05-24T06:33:57;12.20;99.90
9219;DHT22;4644;48.858;9.184;2023-05-24T06:36:26;12.30;99.90
9219;DHT22;4644;48.858;9.184;2023-05-24T06:38:53;12.20;99.90
9219;DHT22;4644;48.858;9.184;2023-05-24T06:41:20;12.30;99.90
9219;DHT22;4644;48.858;9.184;2023-05-24T06:43:47;12.10;99.90
9219;DHT22;4644;48.858;9.184;2023-05-24T06:46:15;12.20;99.90
9219;DHT22;4644;48.858;9.184;2023-05-24T06:48:42;12.20;99.90
9219;DHT22;4644;48.858;9.184;2023-05-24T06:51:09;12.20;99.90
9219;DHT22;4644;48.858;9.184;2023-05-24T06:53:38;12.10;99.90
9219;DHT22;4644;48.858;9.184;2023-05-24T06:56:06;12.10;99.90
9219;DHT22;4644;48.858;9.184;2023-05-24T06:58:33;12.10;99.90
9219;DHT22;4644;48.858;9.184;2023-05-24T07:01:01;12.10;99.90
9219;DHT22;4644;48.858;9.184;2023-05-24T07:03:29;12.20;99.90
9219;DHT22;4644;48.858;9.184;2023-05-24T07:05:57;12.20;99.90
9219;DHT22;4644;48.858;9.184;2023-05-24T07:08:24;12.20;99.90
9219;DHT22;4644;48.858;9.184;2023-05-24T07:10:54;12.20;99.90
9219;DHT22;4644;48.858;9.184;2023-05-24T07:13:22;12.20;99.90
9219;DHT22;4644;48.858;9.184;2023-05-24T07:15:49;12.20;99.90
9219;DHT22;4644;48.858;9.184;2023-05-24T07:18:16;12.20;99.90
9219;DHT22;4644;48.858;9.184;2023-05-24T07:20:43;12.30;99.90
9219;DHT22;4644;48.858;9.184;2023-05-24T07:23:12;12.30;99.90
9219;DHT22;4644;48.858;9.184;2023-05-24T07:25:39;12.30;99.90
9219;DHT22;4644;48.858;9.184;2023-05-24T07:28:08;12.30;99.90
9219;DHT22;4644;48.858;9.184;2023-05-24T07:30:35;12.40;99.90
9219;DHT22;4644;48.858;9.184;2023-05-24T07:33:03;12.40;99.90
9219;DHT22;4644;48.858;9.184;2023-05-24T07:35:31;12.60;99.90
9219;DHT22;4644;48.858;9.184;2023-05-24T07:37:58;12.70;99.90
9219;DHT22;4644;48.858;9.184;2023-05-24T07:40:25;12.70;99.90
9219;DHT22;4644;48.858;9.184;2023-05-24T07:42:53;12.60;99.90
9219;DHT22;4644;48.858;9.184;2023-05-24T07:45:22;12.60;99.90
9219;DHT22;4644;48.858;9.184;2023-05-24T07:47:49;12.50;99.90
9219;DHT22;4644;48.858;9.184;2023-05-24T07:50:17;12.60;99.90
9219;DHT22;4644;48.858;9.184;2023-05-24T07:52:47;12.70;99.90
9219;DHT22;4644;48.858;9.184;2023-05-24T07:55:14;12.80;99.90
9219;DHT22;4644;48.858;9.184;2023-05-24T07:57:41;12.90;99.90
9219;DHT22;4644;48.858;9.184;2023-05-24T08:00:09;13.00;99.90
9219;DHT22;4644;48.858;9.184;2023-05-24T08:02:41;13.00;99.90
9219;DHT22;4644;48.858;9.184;2023-05-24T08:05:10;13.20;99.90
9219;DHT22;4644;48.858;9.184;2023-05-24T08:07:37;12.90;99.90
9219;DHT22;4644;48.858;9.184;2023-05-24T08:10:06;12.90;99.90
9219;DHT22;4644;48.858;9.184;2023-05-24T08:12:33;12.80;99.90
9219;DHT22;4644;48.858;9.184;2023-05-24T08:15:00;12.90;99.90
9219;DHT22;4644;48.858;9.184;2023-05-24T08:17:27;12.80;99.90
9219;DHT22;4644;48.858;9.184;2023-05-24T08:19:57;12.90;99.90
9219;DHT22;4644;48.858;9.184;2023-05-24T08:22:24;12.90;99.90
9219;DHT22;4644;48.858;9.184;2023-05-24T08:24:52;13.00;99.90
9219;DHT22;4644;48.858;9.184;2023-05-24T08:27:20;13.00;99.90
9219;DHT22;4644;48.858;9.184;2023-05-24T08:29:48;13.00;99.90
9219;DHT22;4644;48.858;9.184;2023-05-24T08:32:15;13.10;99.90
9219;DHT22;4644;48.858;9.184;2023-05-24T08:34:42;13.20;99.90
9219;DHT22;4644;48.858;9.184;2023-05-24T08:37:11;13.40;99.90
9219;DHT22;4644;48.858;9.184;2023-05-24T08:39:39;13.20;99.90
9219;DHT22;4644;48.858;9.184;2023-05-24T08:42:06;13.20;99.90
9219;DHT22;4644;48.858;9.184;2023-05-24T08:44:37;13.50;99.90
9219;DHT22;4644;48.858;9.184;2023-05-24T08:47:07;13.40;99.90
9219;DHT22;4644;48.858;9.184;2023-05-24T08:49:36;13.60;99.90
9219;DHT22;4644;48.858;9.184;2023-05-24T08:52:04;13.50;99.90
9219;DHT22;4644;48.858;9.184;2023-05-24T08:54:35;13.50;99.90
9219;DHT22;4644;48.858;9.184;2023-05-24T08:57:03;13.40;99.90
9219;DHT22;4644;48.858;9.184;2023-05-24T08:59:30;13.40;99.90
9219;DHT22;4644;48.858;9.184;2023-05-24T09:01:58;13.40;99.90
9219;DHT22;4644;48.858;9.184;2023-05-24T09:04:26;13.30;99.90
9219;DHT22;4644;48.858;9.184;2023-05-24T09:06:54;13.20;99.90
9219;DHT22;4644;48.858;9.184;2023-05-24T09:09:26;13.40;99.90
9219;DHT22;4644;48.858;9.184;2023-05-24T09:11:58;13.30;99.90
9219;DHT22;4644;48.858;9.184;2023-05-24T09:14:28;13.40;99.90
9219;DHT22;4644;48.858;9.184;2023-05-24T09:16:55;13.40;99.90
9219;DHT22;4644;48.858;9.184;2023-05-24T09:19:23;13.30;99.90
9219;DHT22;4644;48.858;9.184;2023-05-24T09:21:53;13.20;99.90
9219;DHT22;4644;48.858;9.184;2023-05-24T09:24:22;13.10;99.90
9219;DHT22;4644;48.858;9.184;2023-05-24T09:26:49;13.00;99.90
9219;DHT22;4644;48.858;9.184;2023-05-24T09:29:21;13.00;99.90
9219;DHT22;4644;48.858;9.184;2023-05-24T09:31:53;13.10;99.90
9219;DHT22;4644;48.858;9.184;2023-05-24T09:34:21;13.20;99.90
9219;DHT22;4644;48.858;9.184;2023-05-24T09:36:48;13.30;99.90
9219;DHT22;4644;48.858;9.184;2023-05-24T09:39:18;13.10;99.90
9219;DHT22;4644;48.858;9.184;2023-05-24T09:41:51;13.10;99.90
9219;DHT22;4644;48.858;9.184;2023-05-24T09:44:25;13.10;99.90
9219;DHT22;4644;48.858;9.184;2023-05-24T09:46:52;13.10;99.90
9219;DHT22;4644;48.858;9.184;2023-05-24T09:49:20;13.10;99.90
9219;DHT22;4644;48.858;9.184;2023-05-24T09:51:47;13.00;99.90
9219;DHT22;4644;48.858;9.184;2023-05-24T09:54:15;13.00;99.90
9219;DHT22;4644;48.858;9.184;2023-05-24T09:56:45;13.00;99.90
9219;DHT22;4644;48.858;9.184;2023-05-24T09:59:13;13.00;99.90
9219;DHT22;4644;48.858;9.184;2023-05-24T10:01:42;13.00;99.90
9219;DHT22;4644;48.858;9.184;2023-05-24T10:04:09;12.90;99.90
9219;DHT22;4644;48.858;9.184;2023-05-24T10:06:37;12.90;99.90
9219;DHT22;4644;48.858;9.184;2023-05-24T10:09:05;12.90;99.90
9219;DHT22;4644;48.858;9.184;2023-05-24T10:11:35;12.90;99.90
9219;DHT22;4644;48.858;9.184;2023-05-24T10:14:03;12.90;99.90
9219;DHT22;4644;48.858;9.184;2023-05-24T10:16:31;13.00;99.90
9219;DHT22;4644;48.858;9.184;2023-05-24T10:19:00;12.90;99.90
9219;DHT22;4644;48.858;9.184;2023-05-24T10:21:28;13.00;99.90
9219;DHT22;4644;48.858;9.184;2023-05-24T10:23:58;13.10;99.90
9219;DHT22;4644;48.858;9.184;2023-05-24T10:26:31;13.10;99.90
9219;DHT22;4644;48.858;9.184;2023-05-24T10:29:03;13.10;99.90
9219;DHT22;4644;48.858;9.184;2023-05-24T10:31:33;13.20;99.90
9219;DHT22;4644;48.858;9.184;2023-05-24T10:34:05;13.50;99.90
9219;DHT22;4644;48.858;9.184;2023-05-24T10:36:33;13.60;99.90
9219;DHT22;4644;48.858;9.184;2023-05-24T10:39:01;13.60;99.90
9219;DHT22;4644;48.858;9.184;2023-05-24T10:41:38;13.50;99.90
9219;DHT22;4644;48.858;9.184;2023-05-24T10:44:10;13.50;99.90
9219;DHT22;4644;48.858;9.184;2023-05-24T10:47:01;13.50;99.90
9219;DHT22;4644;48.858;9.184;2023-05-24T10:49:30;13.50;99.90
9219;DHT22;4644;48.858;9.184;2023-05-24T10:52:00;13.60;99.90
9219;DHT22;4644;48.858;9.184;2023-05-24T10:54:28;13.70;99.90
9219;DHT22;4644;48.858;9.184;2023-05-24T10:57:00;14.10;99.90
9219;DHT22;4644;48.858;9.184;2023-05-24T10:59:33;14.40;99.90
9219;DHT22;4644;48.858;9.184;2023-05-24T11:02:03;14.60;99.90
9219;DHT22;4644;48.858;9.184;2023-05-24T11:04:36;14.80;99.90
9219;DHT22;4644;48.858;9.184;2023-05-24T11:07:06;14.60;99.90
9219;DHT22;4644;48.858;9.184;2023-05-24T11:09:34;14.80;99.90
9219;DHT22;4644;48.858;9.184;2023-05-24T11:12:03;15.20;99.90
9219;DHT22;4644;48.858;9.184;2023-05-24T11:14:38;15.30;99.00
9219;DHT22;4644;48.858;9.184;2023-05-24T11:17:06;15.30;99.90
9219;DHT22;4644;48.858;9.184;2023-05-24T11:19:35;15.00;99.90
9219;DHT22;4644;48.858;9.184;2023-05-24T11:22:05;15.80;99.60
9219;DHT22;4644;48.858;9.184;2023-05-24T11:24:34;16.60;98.40
9219;DHT22;4644;48.858;9.184;2023-05-24T11:27:01;16.50;97.30
9219;DHT22;4644;48.858;9.184;2023-05-24T11:29:30;16.90;96.50
9219;DHT22;4644;48.858;9.184;2023-05-24T11:31:59;17.10;95.10
9219;DHT22;4644;48.858;9.184;2023-05-24T11:34:32;16.90;94.60
9219;DHT22;4644;48.858;9.184;2023-05-24T11:37:02;16.80;94.30
9219;DHT22;4644;48.858;9.184;2023-05-24T11:39:31;17.70;95.80
9219;DHT22;4644;48.858;9.184;2023-05-24T11:41:59;18.10;92.50
9219;DHT22;4644;48.858;9.184;2023-05-24T11:44:29;19.60;90.60
9219;DHT22;4644;48.858;9.184;2023-05-24T11:46:57;21.10;84.80
9219;DHT22;4644;48.858;9.184;2023-05-24T11:49:25;21.80;75.80
9219;DHT22;4644;48.858;9.184;2023-05-24T11:51:53;22.20;71.50
9219;DHT22;4644;48.858;9.184;2023-05-24T11:54:22;22.30;70.30
9219;DHT22;4644;48.858;9.184;2023-05-24T11:56:51;20.40;72.50
9219;DHT22;4644;48.858;9.184;2023-05-24T11:59:22;18.80;79.50
9219;DHT22;4644;48.858;9.184;2023-05-24T12:01:55;18.50;81.70
9219;DHT22;4644;48.858;9.184;2023-05-24T12:04:23;17.90;81.70
9219;DHT22;4644;48.858;9.184;2023-05-24T12:06:50;17.50;89.70
9219;DHT22;4644;48.858;9.184;2023-05-24T12:09:17;17.30;84.20
9219;DHT22;4644;48.858;9.184;2023-05-24T12:11:48;17.40;87.60
9219;DHT22;4644;48.858;9.184;2023-05-24T12:14:18;17.70;86.80
9219;DHT22;4644;48.858;9.184;2023-05-24T12:16:46;17.60;86.60
9219;DHT22;4644;48.858;9.184;2023-05-24T12:19:16;17.80;85.30
9219;DHT22;4644;48.858;9.184;2023-05-24T12:21:46;17.60;85.80
9219;DHT22;4644;48.858;9.184;2023-05-24T12:24:15;18.00;83.80
9219;DHT22;4644;48.858;9.184;2023-05-24T12:26:45;17.90;83.70
9219;DHT22;4644;48.858;9.184;2023-05-24T12:29:15;17.80;83.70
9219;DHT22;4644;48.858;9.184;2023-05-24T12:31:47;17.80;81.90
9219;DHT22;4644;48.858;9.184;2023-05-24T12:34:16;17.90;86.90
9219;DHT22;4644;48.858;9.184;2023-05-24T12:36:43;17.80;84.80
9219;DHT22;4644;48.858;9.184;2023-05-24T12:39:18;17.40;84.50
9219;DHT22;4644;48.858;9.184;2023-05-24T12:41:49;17.60;85.10
9219;DHT22;4644;48.858;9.184;2023-05-24T12:44:22;17.80;86.40
9219;DHT22;4644;48.858;9.184;2023-05-24T12:46:51;17.60;84.50
9219;DHT22;4644;48.858;9.184;2023-05-24T12:49:19;17.60;83.30
9219;DHT22;4644;48.858;9.184;2023-05-24T12:51:46;17.70;84.70
9219;DHT22;4644;48.858;9.184;2023-05-24T12:54:13;17.90;82.10
9219;DHT22;4644;48.858;9.184;2023-05-24T12:56:40;18.50;83.70
9219;DHT22;4644;48.858;9.184;2023-05-24T12:59:07;18.60;80.10
9219;DHT22;4644;48.858;9.184;2023-05-24T13:01:37;18.70;79.00
9219;DHT22;4644;48.858;9.184;2023-05-24T13:04:04;18.30;77.10
9219;DHT22;4644;48.858;9.184;2023-05-24T13:06:31;18.00;78.80
9219;DHT22;4644;48.858;9.184;2023-05-24T13:08:59;17.90;78.90
9219;DHT22;4644;48.858;9.184;2023-05-24T13:11:26;17.90;79.50
9219;DHT22;4644;48.858;9.184;2023-05-24T13:13:55;18.00;79.80
9219;DHT22;4644;48.858;9.184;2023-05-24T13:16:24;18.20;78.20
9219;DHT22;4644;48.858;9.184;2023-05-24T13:18:53;18.20;78.30
9219;DHT22;4644;48.858;9.184;2023-05-24T13:21:21;17.80;75.40
9219;DHT22;4644;48.858;9.184;2023-05-24T13:23:49;18.00;79.30
9219;DHT22;4644;48.858;9.184;2023-05-24T13:26:16;18.10;77.40
9219;DHT22;4644;48.858;9.184;2023-05-24T13:28:44;17.90;76.80
9219;DHT22;4644;48.858;9.184;2023-05-24T13:31:11;17.90;76.80
9219;DHT22;4644;48.858;9.184;2023-05-24T13:33:39;17.80;77.50
9219;DHT22;4644;48.858;9.184;2023-05-24T13:36:08;17.70;81.30
9219;DHT22;4644;48.858;9.184;2023-05-24T13:38:35;17.90;76.90
9219;DHT22;4644;48.858;9.184;2023-05-24T13:41:02;17.80;75.10
9219;DHT22;4644;48.858;9.184;2023-05-24T13:43:30;17.60;74.00
9219;DHT22;4644;48.858;9.184;2023-05-24T13:45:57;17.20;73.60
9219;DHT22;4644;48.858;9.184;2023-05-24T13:48:24;17.10;76.70
9219;DHT22;4644;48.858;9.184;2023-05-24T13:50:51;17.30;79.40
9219;DHT22;4644;48.858;9.184;2023-05-24T13:53:19;17.40;75.80
9219;DHT22;4644;48.858;9.184;2023-05-24T13:55:48;17.40;74.40
9219;DHT22;4644;48.858;9.184;2023-05-24T13:58:15;17.50;78.60
9219;DHT22;4644;48.858;9.184;2023-05-24T14:00:43;17.30;75.20
9219;DHT22;4644;48.858;9.184;2023-05-24T14:03:11;17.30;75.70
9219;DHT22;4644;48.858;9.184;2023-05-24T14:05:40;17.00;75.60
9219;DHT22;4644;48.858;9.184;2023-05-24T14:08:10;16.90;74.90
9219;DHT22;4644;48.858;9.184;2023-05-24T14:10:39;16.90;75.00
9219;DHT22;4644;48.858;9.184;2023-05-24T14:13:06;17.20;75.10
9219;DHT22;4644;48.858;9.184;2023-05-24T14:15:35;17.40;74.60
9219;DHT22;4644;48.858;9.184;2023-05-24T14:18:03;17.60;73.80
9219;DHT22;4644;48.858;9.184;2023-05-24T14:20:32;17.80;72.20
9219;DHT22;4644;48.858;9.184;2023-05-24T14:23:01;17.70;71.00
9219;DHT22;4644;48.858;9.184;2023-05-24T14:25:28;17.70;71.10
9219;DHT22;4644;48.858;9.184;2023-05-24T14:27:57;17.70;71.40
9219;DHT22;4644;48.858;9.184;2023-05-24T14:30:24;17.60;71.30
9219;DHT22;4644;48.858;9.184;2023-05-24T14:32:52;17.60;70.20
9219;DHT22;4644;48.858;9.184;2023-05-24T14:35:19;17.50;72.10
9219;DHT22;4644;48.858;9.184;2023-05-24T14:37:46;17.70;70.90
9219;DHT22;4644;48.858;9.184;2023-05-24T14:40:13;18.10;71.30
9219;DHT22;4644;48.858;9.184;2023-05-24T14:42:40;18.30;71.70
9219;DHT22;4644;48.858;9.184;2023-05-24T14:45:12;18.50;71.10
9219;DHT22;4644;48.858;9.184;2023-05-24T14:47:39;18.40;70.80
9219;DHT22;4644;48.858;9.184;2023-05-24T14:50:07;18.20;69.10
9219;DHT22;4644;48.858;9.184;2023-05-24T14:52:34;18.10;72.30
9219;DHT22;4644;48.858;9.184;2023-05-24T14:55:02;18.20;69.30
9219;DHT22;4644;48.858;9.184;2023-05-24T14:57:30;18.50;66.20
9219;DHT22;4644;48.858;9.184;2023-05-24T14:59:57;18.60;68.60
9219;DHT22;4644;48.858;9.184;2023-05-24T15:02:25;18.50;69.50
9219;DHT22;4644;48.858;9.184;2023-05-24T15:04:53;18.10;67.30
9219;DHT22;4644;48.858;9.184;2023-05-24T15:07:20;18.40;66.90
9219;DHT22;4644;48.858;9.184;2023-05-24T15:09:48;18.40;68.70
9219;DHT22;4644;48.858;9.184;2023-05-24T15:12:15;18.20;67.30
9219;DHT22;4644;48.858;9.184;2023-05-24T15:14:42;18.30;69.50
9219;DHT22;4644;48.858;9.184;2023-05-24T15:17:10;18.60;70.80
9219;DHT22;4644;48.858;9.184;2023-05-24T15:19:38;18.70;66.40
9219;DHT22;4644;48.858;9.184;2023-05-24T15:22:05;19.10;67.00
9219;DHT22;4644;48.858;9.184;2023-05-24T15:24:33;19.30;69.80
9219;DHT22;4644;48.858;9.184;2023-05-24T15:27:00;19.70;65.20
9219;DHT22;4644;48.858;9.184;2023-05-24T15:29:27;19.70;65.30
9219;DHT22;4644;48.858;9.184;2023-05-24T15:31:55;19.30;66.20
9219;DHT22;4644;48.858;9.184;2023-05-24T15:34:23;19.00;66.50
9219;DHT22;4644;48.858;9.184;2023-05-24T15:36:52;21.20;67.30
9219;DHT22;4644;48.858;9.184;2023-05-24T15:39:19;23.60;60.30
9219;DHT22;4644;48.858;9.184;2023-05-24T15:41:46;25.20;55.60
9219;DHT22;4644;48.858;9.184;2023-05-24T15:44:14;25.40;54.90
9219;DHT22;4644;48.858;9.184;2023-05-24T15:46:41;27.20;53.10
9219;DHT22;4644;48.858;9.184;2023-05-24T15:49:08;28.90;49.10
9219;DHT22;4644;48.858;9.184;2023-05-24T15:51:35;29.40;46.00
9219;DHT22;4644;48.858;9.184;2023-05-24T15:54:05;30.00;43.20
9219;DHT22;4644;48.858;9.184;2023-05-24T15:56:32;29.40;42.10
9219;DHT22;4644;48.858;9.184;2023-05-24T15:58:59;29.90;41.20
9219;DHT22;4644;48.858;9.184;2023-05-24T16:01:26;30.70;41.70
9219;DHT22;4644;48.858;9.184;2023-05-24T16:03:53;29.30;40.80
9219;DHT22;4644;48.858;9.184;2023-05-24T16:06:21;29.60;40.60
9219;DHT22;4644;48.858;9.184;2023-05-24T16:08:48;29.20;40.50
9219;DHT22;4644;48.858;9.184;2023-05-24T16:11:17;29.80;39.60